Time;durP1;ratioP1;P1;durP2;ratioP2;P2;SDS_P1;SDS_P2;PMS_P1;PMS_P2;Temp;Humidity;BMP_temperature;BMP_pressure;BME280_temperature;BME280_humidity;BME280_pressure;Samples;Min_cycle;Max_cycle;Signal;HPM_P1;HPM_P2
2024/01/19 00:01:15;;;;;;;16.87;13.33;;;12.70;77.00;;;;;;4594007;19;21026;-70
2024/01/19 00:02:52;;;;;;;17.20;12.83;;;12.70;77.00;;;;;;4592675;19;20662;-71
2024/01/19 00:04:26;;;;;;;20.40;14.57;;;12.70;77.00;;;;;;4593912;19;20518;-71
2024/01/19 00:06:00;;;;;;;18.43;13.77;;;12.70;77.00;;;;;;4592911;19;20503;-70
2024/01/19 00:07:35;;;;;;;22.73;15.27;;;12.70;76.80;;;;;;4593957;19;20671;-70
2024/01/19 00:09:10;;;;;;;56.70;33.20;;;12.60;76.80;;;;;;4592947;19;20404;-71
2024/01/19 00:10:44;;;;;;;30.83;19.80;;;12.60;76.80;;;;;;4593816;19;20428;-70
2024/01/19 00:12:19;;;;;;;28.33;18.90;;;12.60;76.80;;;;;;4594226;19;20397;-70
2024/01/19 00:13:53;;;;;;;28.47;17.47;;;12.70;77.00;;;;;;4593946;19;20747;-70
2024/01/19 00:15:27;;;;;;;22.43;15.17;;;12.60;77.00;;;;;;4593529;19;21018;-71
2024/01/19 00:17:02;;;;;;;25.60;15.57;;;12.70;77.00;;;;;;4593699;19;20404;-70
2024/01/19 00:18:36;;;;;;;24.73;15.40;;;12.60;76.90;;;;;;4593665;19;20469;-70
2024/01/19 00:20:12;;;;;;;28.00;16.77;;;12.60;76.90;;;;;;4593580;19;20397;-70
2024/01/19 00:21:47;;;;;;;24.53;15.37;;;12.60;76.90;;;;;;4593633;19;20894;-71
2024/01/19 00:23:24;;;;;;;30.10;18.47;;;12.60;76.80;;;;;;4592203;19;20461;-70
2024/01/19 00:25:01;;;;;;;24.77;16.10;;;12.60;76.80;;;;;;4592071;19;20891;-70
2024/01/19 00:26:37;;;;;;;26.73;16.63;;;12.60;76.90;;;;;;4593938;19;20417;-70
2024/01/19 00:28:57;;;;;;;29.33;17.43;;;12.60;76.80;;;;;;4590298;19;21039;-70
2024/01/19 00:30:33;;;;;;;24.17;15.40;;;12.60;76.80;;;;;;4593471;19;20464;-71
2024/01/19 00:32:08;;;;;;;22.40;14.73;;;12.60;76.90;;;;;;4593508;19;20967;-71
2024/01/19 00:33:44;;;;;;;19.00;13.17;;;12.70;76.80;;;;;;4593615;19;21025;-70
2024/01/19 00:35:20;;;;;;;23.30;15.10;;;12.60;76.90;;;;;;4593043;19;20945;-71
2024/01/19 00:36:54;;;;;;;22.00;13.67;;;12.70;77.10;;;;;;4593277;19;20681;-70
2024/01/19 00:38:28;;;;;;;17.73;12.77;;;12.60;77.00;;;;;;4593251;19;20396;-71
2024/01/19 00:40:10;;;;;;;22.03;14.90;;;12.60;76.90;;;;;;4593511;19;20384;-71
2024/01/19 00:41:44;;;;;;;22.13;14.97;;;12.60;76.90;;;;;;4591956;19;20800;-70
2024/01/19 00:43:18;;;;;;;21.93;13.90;;;12.60;76.80;;;;;;4593169;19;20511;-71
2024/01/19 00:44:53;;;;;;;22.27;14.73;;;12.60;76.70;;;;;;4593160;19;20377;-71
2024/01/19 00:46:28;;;;;;;27.17;17.47;;;12.60;76.70;;;;;;4592192;19;20456;-71
2024/01/19 00:48:02;;;;;;;18.10;13.13;;;12.60;76.70;;;;;;4592907;19;20416;-71
2024/01/19 00:49:37;;;;;;;25.10;14.93;;;12.60;76.70;;;;;;4593042;19;20432;-70
2024/01/19 00:51:12;;;;;;;24.70;16.67;;;12.60;76.70;;;;;;4592981;19;20444;-70
2024/01/19 00:52:46;;;;;;;22.03;15.57;;;12.60;76.80;;;;;;4593272;19;20381;-70
2024/01/19 00:54:21;;;;;;;20.83;14.63;;;12.60;76.70;;;;;;4593407;19;20411;-70
2024/01/19 00:55:55;;;;;;;21.17;14.13;;;12.60;76.80;;;;;;4592074;19;20445;-70
2024/01/19 00:57:30;;;;;;;24.17;14.63;;;12.60;76.80;;;;;;4592824;19;20431;-70
2024/01/19 00:59:05;;;;;;;23.37;14.87;;;12.60;76.80;;;;;;4593128;19;20380;-71
2024/01/19 01:14:11;;;;;;;17.80;13.67;;;12.60;77.00;;;;;;4574916;19;20562;-70
2024/01/19 01:15:47;;;;;;;19.77;13.33;;;12.60;76.70;;;;;;4592804;19;20389;-69
2024/01/19 01:17:21;;;;;;;14.87;11.00;;;12.60;76.80;;;;;;4592506;19;20444;-69
2024/01/19 01:18:55;;;;;;;18.13;11.67;;;12.60;76.70;;;;;;4592491;19;20401;-70
2024/01/19 01:20:30;;;;;;;21.13;15.10;;;12.60;76.70;;;;;;4592466;19;20400;-70
2024/01/19 01:22:05;;;;;;;19.17;14.17;;;12.60;76.80;;;;;;4592357;19;20960;-69
2024/01/19 01:23:41;;;;;;;22.53;15.00;;;12.60;76.70;;;;;;4591941;19;20436;-69
2024/01/19 01:25:16;;;;;;;21.87;15.37;;;12.60;76.70;;;;;;4592418;19;20408;-70
2024/01/19 01:26:50;;;;;;;25.53;16.70;;;12.50;76.60;;;;;;4592604;19;20400;-71
2024/01/19 01:28:24;;;;;;;18.00;13.33;;;12.50;76.70;;;;;;4591985;19;20413;-70
2024/01/19 01:29:59;;;;;;;16.70;11.83;;;12.60;76.60;;;;;;4592376;19;20369;-70
2024/01/19 01:31:34;;;;;;;16.07;11.70;;;12.60;76.50;;;;;;4592215;19;20392;-71
2024/01/19 01:33:08;;;;;;;17.83;12.23;;;12.60;76.40;;;;;;4592483;19;20499;-70
2024/01/19 01:34:43;;;;;;;16.07;11.23;;;12.60;76.30;;;;;;4592261;19;20457;-71
2024/01/19 01:36:17;;;;;;;17.37;11.30;;;12.60;76.30;;;;;;4592158;19;20423;-70
2024/01/19 01:37:53;;;;;;;15.77;11.13;;;12.60;76.10;;;;;;4592069;19;20427;-70
2024/01/19 01:39:28;;;;;;;14.80;9.90;;;12.50;75.80;;;;;;4592189;19;20365;-70
2024/01/19 01:41:03;;;;;;;16.03;9.73;;;12.50;75.80;;;;;;4592032;19;20732;-70
2024/01/19 01:42:37;;;;;;;16.57;10.67;;;12.50;75.80;;;;;;4592047;19;20423;-70
2024/01/19 01:44:12;;;;;;;12.60;9.10;;;12.50;75.70;;;;;;4591153;19;20493;-71
2024/01/19 01:45:46;;;;;;;14.10;10.07;;;12.50;75.70;;;;;;4590667;19;21019;-70
2024/01/19 01:47:20;;;;;;;15.93;10.67;;;12.50;75.50;;;;;;4591587;19;20405;-71
2024/01/19 01:48:55;;;;;;;19.03;11.87;;;12.50;75.50;;;;;;4591260;19;20491;-71
2024/01/19 01:50:30;;;;;;;17.63;12.40;;;12.50;75.60;;;;;;4592125;19;20389;-70
2024/01/19 01:52:04;;;;;;;17.50;11.90;;;12.50;75.60;;;;;;4590819;19;20397;-70
2024/01/19 01:53:39;;;;;;;18.33;12.37;;;12.50;75.80;;;;;;4591111;19;20911;-71
2024/01/19 01:55:13;;;;;;;19.20;12.80;;;12.50;75.90;;;;;;4591876;19;20413;-71
2024/01/19 01:56:47;;;;;;;16.53;11.47;;;12.50;76.10;;;;;;4590439;19;20496;-71
2024/01/19 01:58:22;;;;;;;17.67;10.93;;;12.50;76.10;;;;;;4591564;19;20405;-70
2024/01/19 01:59:56;;;;;;;19.03;12.53;;;12.50;76.20;;;;;;4590382;19;20844;-71
2024/01/19 02:01:30;;;;;;;16.30;11.13;;;12.50;76.00;;;;;;4590388;19;20581;-71
2024/01/19 02:03:06;;;;;;;20.30;15.53;;;12.50;75.80;;;;;;4591469;19;20323;-70
2024/01/19 02:04:40;;;;;;;29.83;18.43;;;12.50;76.00;;;;;;4590362;19;20488;-71
2024/01/19 02:06:13;;;;;;;18.17;11.60;;;12.50;75.90;;;;;;4590341;19;20435;-71
2024/01/19 02:07:50;;;;;;;14.63;10.70;;;12.50;75.70;;;;;;4594840;19;20417;-70
2024/01/19 02:09:25;;;;;;;16.20;11.40;;;12.50;75.60;;;;;;4594625;19;20413;-70
2024/01/19 02:10:59;;;;;;;16.70;11.27;;;12.50;75.80;;;;;;4594943;19;20425;-71
2024/01/19 02:12:34;;;;;;;15.43;11.23;;;12.50;75.60;;;;;;4595918;19;20736;-70
2024/01/19 02:14:10;;;;;;;13.87;10.40;;;12.50;75.70;;;;;;4593340;19;20469;-71
2024/01/19 02:15:44;;;;;;;11.10;8.30;;;12.50;75.70;;;;;;4596213;19;20354;-70
2024/01/19 02:17:19;;;;;;;13.67;9.27;;;12.50;75.70;;;;;;4595097;19;20393;-70
2024/01/19 02:18:54;;;;;;;21.60;11.60;;;12.50;75.70;;;;;;4595769;19;20401;-71
2024/01/19 02:20:28;;;;;;;13.77;10.10;;;12.50;75.50;;;;;;4594851;19;20408;-71
2024/01/19 02:22:04;;;;;;;16.30;10.17;;;12.50;75.40;;;;;;4595843;19;20461;-70
2024/01/19 02:23:45;;;;;;;14.70;9.53;;;12.50;75.30;;;;;;4595420;19;20459;-71
2024/01/19 02:25:19;;;;;;;14.93;10.27;;;12.50;75.30;;;;;;4594724;19;20369;-70
2024/01/19 02:26:55;;;;;;;17.17;10.70;;;12.50;75.20;;;;;;4595692;19;20384;-70
2024/01/19 02:28:29;;;;;;;14.90;10.43;;;12.50;75.10;;;;;;4595599;19;20412;-71
2024/01/19 02:30:06;;;;;;;15.47;10.97;;;12.40;74.90;;;;;;4595918;19;20400;-70
2024/01/19 02:31:42;;;;;;;12.97;9.40;;;12.50;74.90;;;;;;4594625;19;20946;-70
2024/01/19 02:33:17;;;;;;;12.10;8.07;;;12.50;74.70;;;;;;4595583;19;20994;-71
2024/01/19 02:34:52;;;;;;;12.13;8.47;;;12.50;74.50;;;;;;4596071;19;20427;-70
2024/01/19 02:36:27;;;;;;;15.30;10.67;;;12.50;74.40;;;;;;4595871;19;20378;-70
2024/01/19 02:38:02;;;;;;;11.63;8.47;;;12.40;74.10;;;;;;4595719;19;20750;-70
2024/01/19 02:39:36;;;;;;;13.43;9.23;;;12.50;74.20;;;;;;4595719;19;20419;-71
2024/01/19 02:41:11;;;;;;;11.83;8.67;;;12.40;74.10;;;;;;4595658;19;20508;-71
2024/01/19 02:42:45;;;;;;;14.83;10.07;;;12.40;74.00;;;;;;4595896;19;20910;-70
2024/01/19 02:44:19;;;;;;;18.80;11.50;;;12.50;74.00;;;;;;4594239;19;20834;-71
2024/01/19 02:45:55;;;;;;;13.30;9.70;;;12.40;73.90;;;;;;4595710;19;20489;-70
2024/01/19 02:47:29;;;;;;;15.07;10.27;;;12.40;73.90;;;;;;4595552;19;20405;-71
2024/01/19 02:49:04;;;;;;;13.43;8.73;;;12.40;73.80;;;;;;4594461;19;20442;-71
2024/01/19 02:50:39;;;;;;;14.33;9.40;;;12.40;73.80;;;;;;4595841;19;20377;-70
2024/01/19 02:52:14;;;;;;;12.23;8.50;;;12.40;73.80;;;;;;4595448;19;20405;-70
2024/01/19 02:53:48;;;;;;;12.20;8.63;;;12.40;73.80;;;;;;4594591;19;20457;-70
2024/01/19 02:55:23;;;;;;;12.63;8.60;;;12.40;73.80;;;;;;4595419;19;20499;-71
2024/01/19 02:56:57;;;;;;;15.47;9.73;;;12.50;73.90;;;;;;4595596;19;20439;-70
2024/01/19 02:58:31;;;;;;;11.63;9.30;;;12.40;73.80;;;;;;4595357;19;20492;-70
2024/01/19 03:00:07;;;;;;;12.70;9.40;;;12.40;73.80;;;;;;4595316;19;20395;-70
2024/01/19 03:01:41;;;;;;;14.77;9.80;;;12.40;73.80;;;;;;4595280;19;20945;-70
2024/01/19 03:03:15;;;;;;;13.20;10.07;;;12.40;73.60;;;;;;4594991;19;20420;-70
2024/01/19 03:04:51;;;;;;;15.40;11.07;;;12.40;73.50;;;;;;4595288;19;20369;-70
2024/01/19 03:06:26;;;;;;;15.77;11.50;;;12.40;73.40;;;;;;4595174;19;20735;-70
2024/01/19 03:08:01;;;;;;;14.07;9.93;;;12.40;73.50;;;;;;4595172;19;20712;-70
2024/01/19 03:09:36;;;;;;;13.70;9.70;;;12.40;73.60;;;;;;4593446;19;20408;-71
2024/01/19 03:11:10;;;;;;;14.07;10.90;;;12.40;73.70;;;;;;4595137;19;20483;-70
2024/01/19 03:12:44;;;;;;;16.07;11.53;;;12.40;73.40;;;;;;4595265;19;20867;-71
2024/01/19 03:14:19;;;;;;;16.67;12.20;;;12.40;73.30;;;;;;4593855;19;20986;-71
2024/01/19 03:15:53;;;;;;;16.63;13.23;;;12.40;73.20;;;;;;4594866;19;20409;-70
2024/01/19 03:17:29;;;;;;;14.40;11.30;;;12.40;73.20;;;;;;4593811;19;20449;-70
2024/01/19 03:19:06;;;;;;;15.17;12.00;;;12.40;73.00;;;;;;4591823;19;20412;-70
2024/01/19 03:20:40;;;;;;;16.53;12.90;;;12.40;73.00;;;;;;4595198;19;20389;-70
2024/01/19 03:22:14;;;;;;;17.10;12.50;;;12.40;73.00;;;;;;4595097;19;20401;-70
2024/01/19 03:23:49;;;;;;;17.97;13.70;;;12.40;72.90;;;;;;4594445;19;20738;-70
2024/01/19 03:25:23;;;;;;;16.40;13.23;;;12.40;73.10;;;;;;4594821;19;20384;-70
2024/01/19 03:26:57;;;;;;;16.93;12.93;;;12.40;73.00;;;;;;4594796;19;20400;-71
2024/01/19 03:28:33;;;;;;;15.73;13.10;;;12.30;72.70;;;;;;4594723;19;20669;-71
2024/01/19 03:30:08;;;;;;;18.47;13.80;;;12.40;72.80;;;;;;4594698;19;20419;-71
2024/01/19 03:31:42;;;;;;;16.00;13.00;;;12.40;72.70;;;;;;4593589;19;21049;-70
2024/01/19 03:33:18;;;;;;;16.87;12.87;;;12.30;72.50;;;;;;4594233;19;20377;-70
2024/01/19 03:34:52;;;;;;;20.27;15.13;;;12.40;72.80;;;;;;4594650;19;20401;-70
2024/01/19 03:36:26;;;;;;;22.27;15.83;;;12.40;72.70;;;;;;4593248;19;20409;-70
2024/01/19 03:38:01;;;;;;;17.47;14.03;;;12.40;72.90;;;;;;4594576;19;20381;-71
2024/01/19 03:39:35;;;;;;;19.87;14.53;;;12.40;72.80;;;;;;4594487;19;20536;-71
2024/01/19 03:41:09;;;;;;;20.00;14.93;;;12.40;72.60;;;;;;4594487;19;20381;-70
2024/01/19 03:42:44;;;;;;;17.77;13.93;;;12.40;72.70;;;;;;4594471;19;20705;-70
2024/01/19 03:44:18;;;;;;;17.60;14.73;;;12.40;72.60;;;;;;4591900;19;20453;-70
2024/01/19 03:45:53;;;;;;;18.33;14.27;;;12.40;72.40;;;;;;4594281;19;20785;-71
2024/01/19 03:47:29;;;;;;;17.40;13.00;;;12.40;72.40;;;;;;4594366;19;20468;-71
2024/01/19 03:49:03;;;;;;;19.13;14.13;;;12.40;72.50;;;;;;4592353;19;20412;-70
2024/01/19 03:50:37;;;;;;;17.57;14.10;;;12.40;72.40;;;;;;4594136;19;20400;-70
2024/01/19 03:52:12;;;;;;;18.03;13.67;;;12.30;72.40;;;;;;4592999;19;20369;-70
2024/01/19 03:53:46;;;;;;;19.27;14.33;;;12.40;72.40;;;;;;4592190;19;20445;-70
2024/01/19 03:55:20;;;;;;;18.30;13.77;;;12.40;72.20;;;;;;4593848;19;20429;-71
2024/01/19 03:56:58;;;;;;;16.90;13.30;;;12.30;72.10;;;;;;4592814;19;20454;-70
2024/01/19 03:58:32;;;;;;;16.80;13.23;;;12.30;72.10;;;;;;4593172;19;20804;-70
2024/01/19 04:00:06;;;;;;;17.47;13.77;;;12.30;71.90;;;;;;4593710;19;20785;-70
2024/01/19 04:01:43;;;;;;;19.57;14.30;;;12.30;71.80;;;;;;4594395;19;20377;-70
2024/01/19 04:03:19;;;;;;;19.10;14.37;;;12.30;71.80;;;;;;4593785;19;20388;-70
2024/01/19 04:04:53;;;;;;;20.47;14.50;;;12.30;71.80;;;;;;4594327;19;20424;-71
2024/01/19 04:06:29;;;;;;;19.10;13.70;;;12.30;71.70;;;;;;4594005;19;20729;-70
2024/01/19 04:08:04;;;;;;;17.57;14.03;;;12.30;71.80;;;;;;4593955;19;20385;-70
2024/01/19 04:09:37;;;;;;;18.53;13.00;;;12.30;71.80;;;;;;4592805;19;20420;-70
2024/01/19 04:11:13;;;;;;;19.00;13.73;;;12.30;71.70;;;;;;4594148;19;20749;-70
2024/01/19 04:12:48;;;;;;;18.80;12.87;;;12.30;71.60;;;;;;4594028;19;20503;-70
2024/01/19 04:14:22;;;;;;;18.70;12.87;;;12.30;71.70;;;;;;4591376;19;20469;-70
2024/01/19 04:15:57;;;;;;;18.03;13.87;;;12.30;71.60;;;;;;4593438;19;20385;-70
2024/01/19 04:17:31;;;;;;;17.27;12.67;;;12.30;71.50;;;;;;4593746;19;20401;-71
2024/01/19 04:19:05;;;;;;;19.20;13.77;;;12.30;71.40;;;;;;4592563;19;20508;-70
2024/01/19 04:20:41;;;;;;;17.23;12.73;;;12.30;71.40;;;;;;4593438;19;20377;-70
2024/01/19 04:22:15;;;;;;;22.27;14.63;;;12.30;71.40;;;;;;4593588;19;20409;-70
2024/01/19 04:23:49;;;;;;;16.60;12.13;;;12.30;71.40;;;;;;4593279;19;20445;-70
2024/01/19 04:25:24;;;;;;;18.17;12.67;;;12.30;71.20;;;;;;4592264;19;20373;-71
2024/01/19 04:26:59;;;;;;;20.43;14.40;;;12.30;71.30;;;;;;4593471;19;20400;-71
2024/01/19 04:28:33;;;;;;;20.63;13.83;;;12.30;71.20;;;;;;4593334;19;20413;-70
2024/01/19 04:30:08;;;;;;;21.17;12.83;;;12.30;71.10;;;;;;4592525;19;20412;-70
2024/01/19 04:31:42;;;;;;;19.40;13.50;;;12.30;71.10;;;;;;4593469;19;20420;-71
2024/01/19 04:33:17;;;;;;;23.83;14.93;;;12.30;71.10;;;;;;4593237;19;20404;-70
2024/01/19 04:34:52;;;;;;;26.30;16.43;;;12.30;70.90;;;;;;4593459;19;20476;-71
2024/01/19 04:36:26;;;;;;;28.10;17.87;;;12.30;70.90;;;;;;4593489;19;20400;-70
2024/01/19 04:38:00;;;;;;;32.20;18.43;;;12.30;70.90;;;;;;4593504;19;20444;-71
2024/01/19 04:39:35;;;;;;;20.57;14.37;;;12.30;70.90;;;;;;4593194;19;20532;-70
2024/01/19 04:41:09;;;;;;;18.40;14.00;;;12.40;70.90;;;;;;4591927;19;20392;-71
2024/01/19 04:42:44;;;;;;;22.93;15.07;;;12.50;70.80;;;;;;4592812;19;20397;-70
2024/01/19 04:44:19;;;;;;;22.97;15.70;;;12.60;70.80;;;;;;4592480;19;20543;-71
2024/01/19 04:45:53;;;;;;;22.87;15.87;;;12.70;70.60;;;;;;4591977;19;20487;-71
2024/01/19 04:47:27;;;;;;;22.07;15.60;;;12.90;70.20;;;;;;4592631;19;20396;-70
2024/01/19 04:49:02;;;;;;;20.50;15.20;;;13.10;69.90;;;;;;4592351;19;20709;-70
2024/01/19 04:50:36;;;;;;;32.77;18.50;;;13.20;69.70;;;;;;4592994;19;20709;-69
2024/01/19 04:52:10;;;;;;;21.70;14.33;;;13.30;69.20;;;;;;4593036;19;20408;-69
2024/01/19 04:53:45;;;;;;;17.50;13.60;;;13.50;69.20;;;;;;4591147;19;20445;-69
2024/01/19 04:55:19;;;;;;;16.90;13.63;;;13.60;68.90;;;;;;4592817;19;20839;-69
2024/01/19 04:56:54;;;;;;;19.63;13.20;;;13.70;68.80;;;;;;4593341;19;20440;-69
2024/01/19 04:58:29;;;;;;;18.67;14.77;;;13.80;68.60;;;;;;4593185;19;20734;-69
2024/01/19 05:00:05;;;;;;;19.70;12.70;;;13.90;68.40;;;;;;4593199;19;20301;-69
2024/01/19 05:01:39;;;;;;;17.83;12.90;;;13.90;68.30;;;;;;4592834;19;20708;-68
2024/01/19 05:03:15;;;;;;;19.13;14.03;;;14.00;68.40;;;;;;4592659;19;20373;-69
2024/01/19 05:04:49;;;;;;;19.10;13.80;;;14.00;68.00;;;;;;4591367;19;20427;-69
2024/01/19 05:06:27;;;;;;;21.73;14.53;;;14.00;68.10;;;;;;4590260;19;20413;-68
2024/01/19 05:08:02;;;;;;;19.33;15.03;;;14.10;68.00;;;;;;4592548;19;20020;-69
2024/01/19 05:09:38;;;;;;;18.23;14.27;;;14.10;67.90;;;;;;4592025;19;20416;-69
2024/01/19 05:11:13;;;;;;;20.13;14.97;;;14.10;67.80;;;;;;4592715;19;20452;-75
2024/01/19 05:12:49;;;;;;;20.00;16.07;;;14.00;67.80;;;;;;4592667;19;20006;-69
2024/01/19 05:14:23;;;;;;;18.70;14.43;;;14.10;67.70;;;;;;4589985;19;20510;-69
2024/01/19 05:15:57;;;;;;;19.93;15.93;;;14.00;67.80;;;;;;4591437;19;20437;-71
2024/01/19 05:17:33;;;;;;;23.43;17.10;;;14.00;67.60;;;;;;4591528;19;20298;-71
2024/01/19 05:19:08;;;;;;;22.40;16.53;;;14.00;67.60;;;;;;4592068;19;20404;-71
2024/01/19 05:20:42;;;;;;;21.57;16.90;;;14.00;67.60;;;;;;4592394;19;20010;-71
2024/01/19 05:22:18;;;;;;;20.03;16.37;;;13.90;67.60;;;;;;4591040;19;20022;-71
2024/01/19 05:23:52;;;;;;;22.17;17.67;;;13.90;67.50;;;;;;4591503;19;20007;-69
2024/01/19 05:25:26;;;;;;;27.53;19.80;;;13.80;67.40;;;;;;4592637;19;20327;-68
2024/01/19 05:27:01;;;;;;;24.40;18.87;;;13.80;67.40;;;;;;4592409;19;20424;-69
2024/01/19 05:28:36;;;;;;;22.17;17.97;;;13.80;67.50;;;;;;4590679;19;19998;-69
2024/01/19 05:30:13;;;;;;;23.77;20.27;;;13.70;68.00;;;;;;4591194;19;20408;-70
2024/01/19 05:31:49;;;;;;;23.70;18.60;;;13.70;68.00;;;;;;4590923;19;20426;-71
2024/01/19 05:33:23;;;;;;;23.67;18.47;;;13.60;68.00;;;;;;4591559;19;20105;-71
2024/01/19 05:34:57;;;;;;;23.57;18.67;;;13.60;68.10;;;;;;4590716;19;20015;-70
2024/01/19 05:36:32;;;;;;;24.67;19.17;;;13.60;68.20;;;;;;4591738;19;20073;-71
2024/01/19 05:38:06;;;;;;;21.83;18.10;;;13.60;68.40;;;;;;4592006;19;20397;-71
2024/01/19 05:39:40;;;;;;;24.60;19.67;;;13.70;68.50;;;;;;4590948;19;19999;-71
2024/01/19 05:41:24;;;;;;;26.20;20.57;;;13.70;68.60;;;;;;4590013;19;20397;-70
2024/01/19 05:42:58;;;;;;;27.87;21.83;;;13.90;68.60;;;;;;4591560;19;20387;-71
2024/01/19 05:44:32;;;;;;;32.83;24.57;;;14.00;68.40;;;;;;4590816;19;21033;-71
2024/01/19 05:46:07;;;;;;;39.07;27.73;;;14.00;68.10;;;;;;4591935;19;20385;-71
2024/01/19 05:47:42;;;;;;;41.00;29.30;;;14.10;68.20;;;;;;4591836;19;20385;-71
2024/01/19 05:49:15;;;;;;;36.27;25.83;;;14.20;68.10;;;;;;4589963;19;20003;-71
2024/01/19 05:50:51;;;;;;;38.57;26.70;;;14.30;68.00;;;;;;4591835;19;20007;-70
2024/01/19 05:52:25;;;;;;;39.47;27.17;;;14.30;67.80;;;;;;4591711;19;20002;-71
2024/01/19 05:53:59;;;;;;;29.37;22.37;;;14.40;67.90;;;;;;4591155;19;20450;-71
2024/01/19 05:55:34;;;;;;;33.50;25.33;;;14.40;67.70;;;;;;4591690;19;20026;-71
2024/01/19 05:57:09;;;;;;;28.33;22.43;;;14.40;67.60;;;;;;4591531;19;19999;-71
2024/01/19 05:58:43;;;;;;;30.30;22.13;;;14.40;67.50;;;;;;4591671;19;19995;-71
2024/01/19 06:00:19;;;;;;;32.17;23.40;;;14.40;67.40;;;;;;4590205;19;20496;-71
2024/01/19 06:01:52;;;;;;;32.00;24.00;;;14.40;67.30;;;;;;4591473;19;20392;-71
2024/01/19 06:03:26;;;;;;;32.93;24.17;;;14.40;67.30;;;;;;4590068;19;20747;-71
2024/01/19 06:05:02;;;;;;;33.20;23.83;;;14.30;67.30;;;;;;4591233;19;20374;-71
2024/01/19 06:06:37;;;;;;;27.00;22.60;;;14.30;67.80;;;;;;4591476;19;20496;-71
2024/01/19 06:08:11;;;;;;;28.60;22.20;;;14.30;67.40;;;;;;4591584;19;20014;-71
2024/01/19 06:09:47;;;;;;;26.27;21.17;;;14.20;67.30;;;;;;4590250;19;20436;-71
2024/01/19 06:11:21;;;;;;;27.50;20.43;;;14.20;67.40;;;;;;4591533;19;20003;-71
2024/01/19 06:12:55;;;;;;;27.70;20.90;;;14.10;67.50;;;;;;4591646;19;20974;-71
2024/01/19 06:14:31;;;;;;;26.17;20.43;;;14.10;67.60;;;;;;4590064;19;20544;-71
2024/01/19 06:16:05;;;;;;;27.07;20.27;;;14.00;67.60;;;;;;4591430;19;21069;-71
2024/01/19 06:17:38;;;;;;;24.90;19.50;;;14.00;67.70;;;;;;4591371;19;20429;-71
2024/01/19 06:19:13;;;;;;;27.03;20.10;;;14.00;67.90;;;;;;4590280;19;20991;-71
2024/01/19 06:20:48;;;;;;;24.50;19.13;;;13.90;67.80;;;;;;4591255;19;19999;-71
2024/01/19 06:22:22;;;;;;;23.17;18.50;;;13.90;68.00;;;;;;4590279;19;20436;-71
2024/01/19 06:23:58;;;;;;;23.73;19.10;;;13.80;68.00;;;;;;4590243;19;20437;-71
2024/01/19 06:25:32;;;;;;;25.50;20.03;;;13.80;68.00;;;;;;4591169;19;20393;-71
2024/01/19 06:27:07;;;;;;;24.07;18.70;;;13.70;68.10;;;;;;4591227;19;20488;-71
2024/01/19 06:28:42;;;;;;;25.97;19.20;;;13.70;68.20;;;;;;4591298;19;20931;-71
2024/01/19 06:30:16;;;;;;;28.33;19.23;;;13.60;68.10;;;;;;4591430;19;20436;-71
2024/01/19 06:31:50;;;;;;;23.50;19.10;;;13.60;68.20;;;;;;4591211;19;20038;-71
2024/01/19 06:33:25;;;;;;;24.93;18.60;;;13.60;68.20;;;;;;4589853;19;20011;-71
2024/01/19 06:34:59;;;;;;;26.80;19.20;;;13.60;68.20;;;;;;4590838;19;20385;-71
2024/01/19 06:36:33;;;;;;;24.97;21.10;;;13.60;68.80;;;;;;4591107;19;20492;-71
2024/01/19 06:38:08;;;;;;;25.03;20.87;;;13.60;68.10;;;;;;4591011;19;20930;-71
2024/01/19 06:39:45;;;;;;;36.30;21.43;;;13.60;68.00;;;;;;4589803;19;20006;-71
2024/01/19 06:41:21;;;;;;;25.90;20.17;;;13.60;68.00;;;;;;4589808;19;20436;-71
2024/01/19 06:42:56;;;;;;;24.50;19.40;;;13.60;68.00;;;;;;4590882;19;20392;-71
2024/01/19 06:44:30;;;;;;;29.33;21.30;;;13.60;68.10;;;;;;4589584;19;20483;-71
2024/01/19 06:46:05;;;;;;;26.43;19.60;;;13.50;68.00;;;;;;4590978;19;19998;-71
2024/01/19 06:47:41;;;;;;;25.80;20.57;;;13.50;67.90;;;;;;4590008;19;20006;-71
2024/01/19 06:49:15;;;;;;;25.53;21.00;;;13.50;68.10;;;;;;4589797;19;20023;-71
2024/01/19 06:50:49;;;;;;;26.07;19.97;;;13.40;68.00;;;;;;4591205;19;20397;-71
2024/01/19 06:52:24;;;;;;;25.47;21.07;;;13.40;68.10;;;;;;4591708;19;20013;-71
2024/01/19 06:53:57;;;;;;;24.77;19.50;;;13.30;68.00;;;;;;4593792;19;20480;-71
2024/01/19 06:55:31;;;;;;;25.03;20.57;;;13.30;68.00;;;;;;4595520;19;20389;-71
2024/01/19 06:57:06;;;;;;;28.73;22.47;;;13.30;67.90;;;;;;4595308;19;20409;-71
2024/01/19 06:58:40;;;;;;;25.80;20.50;;;13.30;67.90;;;;;;4595363;19;20415;-71
2024/01/19 07:00:17;;;;;;;28.97;23.27;;;13.20;68.00;;;;;;4594116;19;20400;-71
2024/01/19 07:01:53;;;;;;;26.87;22.13;;;13.20;68.00;;;;;;4595351;19;20361;-71
2024/01/19 07:03:28;;;;;;;27.07;21.70;;;13.20;68.10;;;;;;4594802;19;20516;-71
2024/01/19 07:05:01;;;;;;;29.63;22.30;;;13.10;68.00;;;;;;4595446;19;20389;-71
2024/01/19 07:06:37;;;;;;;33.03;23.70;;;13.10;68.00;;;;;;4595446;19;20385;-71
2024/01/19 07:08:11;;;;;;;28.83;23.30;;;13.10;68.00;;;;;;4595099;19;20421;-71
2024/01/19 07:09:45;;;;;;;28.53;22.60;;;13.10;68.10;;;;;;4593439;19;20494;-71
2024/01/19 07:11:20;;;;;;;28.70;22.60;;;13.10;68.10;;;;;;4595314;19;20454;-71
2024/01/19 07:12:54;;;;;;;31.57;23.30;;;13.00;68.20;;;;;;4595112;19;20397;-71
2024/01/19 07:14:28;;;;;;;33.57;24.10;;;13.00;68.10;;;;;;4593297;19;21011;-71
2024/01/19 07:16:07;;;;;;;29.93;23.23;;;13.00;68.00;;;;;;4595362;19;20665;-71
2024/01/19 07:17:41;;;;;;;31.23;22.67;;;13.00;68.10;;;;;;4595234;19;20377;-71
2024/01/19 07:19:15;;;;;;;27.73;22.40;;;12.90;68.10;;;;;;4593511;19;20389;-71
2024/01/19 07:20:50;;;;;;;28.50;21.13;;;12.90;68.00;;;;;;4594534;19;20871;-71
2024/01/19 07:22:24;;;;;;;27.80;21.60;;;12.90;68.00;;;;;;4594764;19;20409;-71
2024/01/19 07:23:58;;;;;;;30.47;21.83;;;12.90;68.00;;;;;;4593763;19;20466;-71
2024/01/19 07:25:33;;;;;;;28.87;22.03;;;12.90;68.00;;;;;;4594656;19;20463;-71
2024/01/19 07:27:07;;;;;;;28.73;22.27;;;12.80;68.10;;;;;;4594846;19;20385;-71
2024/01/19 07:28:41;;;;;;;27.87;20.70;;;12.80;68.10;;;;;;4594201;19;20431;-71
2024/01/19 07:30:16;;;;;;;28.60;21.07;;;12.80;68.30;;;;;;4594623;19;20703;-71
2024/01/19 07:31:50;;;;;;;27.00;21.30;;;12.80;68.30;;;;;;4593257;19;20405;-71
2024/01/19 07:33:24;;;;;;;31.10;22.03;;;12.80;68.30;;;;;;4593748;19;20389;-71
2024/01/19 07:34:59;;;;;;;28.07;21.80;;;12.80;68.30;;;;;;4594699;19;20431;-71
2024/01/19 07:36:33;;;;;;;29.60;21.77;;;12.70;68.30;;;;;;4593043;19;20495;-71
2024/01/19 07:38:07;;;;;;;29.40;22.87;;;12.70;68.40;;;;;;4594073;19;20433;-71
2024/01/19 07:39:43;;;;;;;31.57;23.93;;;12.70;68.50;;;;;;4594562;19;20914;-71
2024/01/19 07:41:17;;;;;;;30.37;22.20;;;12.70;68.60;;;;;;4594543;19;20393;-71
2024/01/19 07:42:51;;;;;;;32.83;23.10;;;12.70;68.60;;;;;;4594310;19;20452;-71
2024/01/19 07:44:27;;;;;;;30.43;23.07;;;12.70;68.90;;;;;;4591726;19;20482;-71
2024/01/19 07:46:00;;;;;;;32.07;22.63;;;12.60;68.90;;;;;;4594206;19;20425;-71
2024/01/19 07:47:34;;;;;;;31.33;23.53;;;12.60;68.90;;;;;;4594186;19;20434;-71
2024/01/19 07:49:10;;;;;;;28.30;23.27;;;12.60;69.00;;;;;;4593348;19;21015;-71
2024/01/19 07:50:44;;;;;;;28.73;22.13;;;12.60;69.10;;;;;;4594438;19;20439;-71
2024/01/19 07:52:18;;;;;;;29.07;22.47;;;12.60;69.20;;;;;;4593120;19;20444;-71
2024/01/19 07:53:54;;;;;;;30.27;22.60;;;12.60;69.30;;;;;;4592441;19;20442;-71
2024/01/19 07:55:28;;;;;;;29.17;23.30;;;12.60;69.30;;;;;;4593739;19;20385;-71
2024/01/19 07:57:02;;;;;;;32.50;23.47;;;12.60;69.50;;;;;;4594065;19;20405;-71
2024/01/19 07:58:37;;;;;;;33.23;23.63;;;12.60;69.60;;;;;;4594119;19;20374;-71
2024/01/19 08:00:12;;;;;;;31.70;23.33;;;12.50;69.50;;;;;;4594020;19;20393;-72
2024/01/19 08:01:46;;;;;;;33.27;25.13;;;12.50;69.60;;;;;;4594245;19;20408;-71
2024/01/19 08:03:21;;;;;;;35.50;25.80;;;12.50;69.70;;;;;;4594079;19;20512;-71
2024/01/19 08:04:57;;;;;;;33.73;23.97;;;12.50;69.90;;;;;;4592094;19;20406;-71
2024/01/19 08:06:32;;;;;;;30.80;23.20;;;12.50;69.90;;;;;;4592405;19;20500;-72
2024/01/19 08:08:07;;;;;;;34.77;24.90;;;12.50;69.90;;;;;;4593488;19;20403;-71
2024/01/19 08:09:41;;;;;;;32.40;24.77;;;12.50;70.00;;;;;;4592772;19;20417;-71
2024/01/19 08:11:15;;;;;;;35.13;26.20;;;12.50;70.10;;;;;;4593746;19;20393;-71
2024/01/19 08:12:50;;;;;;;34.93;25.33;;;12.50;70.20;;;;;;4593942;19;20455;-70
2024/01/19 08:14:24;;;;;;;33.83;24.40;;;12.60;70.10;;;;;;4592630;19;20789;-71
2024/01/19 08:15:58;;;;;;;32.47;24.73;;;12.60;70.10;;;;;;4593712;19;20423;-71